Time;durP1;ratioP1;P1;durP2;ratioP2;P2;SDS_P1;SDS_P2;PMS_P1;PMS_P2;Temp;Humidity;BMP_temperature;BMP_pressure;BME280_temperature;BME280_humidity;BME280_pressure;Samples;Min_cycle;Max_cycle;Signal;HPM_P1;HPM_P2
2021/05/12 00:01:20;;;;;;;4.65;2.55;;;24.50;45.10;;;;;;5035487;28;20043;-61
2021/05/12 00:03:45;;;;;;;4.25;2.83;;;24.50;45.10;;;;;;5030002;28;20155;-62
2021/05/12 00:06:11;;;;;;;4.07;2.60;;;24.50;45.10;;;;;;5028483;28;20033;-62
2021/05/12 00:08:37;;;;;;;4.43;2.70;;;24.50;45.10;;;;;;5043274;28;20086;-63
2021/05/12 00:11:03;;;;;;;4.07;2.78;;;24.50;45.10;;;;;;5039068;28;20141;-64
2021/05/12 00:13:28;;;;;;;3.95;2.53;;;24.40;45.10;;;;;;5045958;28;20026;-64
2021/05/12 00:15:54;;;;;;;4.18;2.60;;;24.40;45.10;;;;;;5037833;28;20036;-61
2021/05/12 00:18:22;;;;;;;4.45;2.63;;;24.40;45.10;;;;;;5043385;28;20043;-62
2021/05/12 00:20:49;;;;;;;4.35;2.83;;;24.40;45.10;;;;;;5039235;28;20167;-64
2021/05/12 00:23:21;;;;;;;4.70;2.78;;;24.40;45.10;;;;;;5042217;28;20117;-61
2021/05/12 00:25:47;;;;;;;4.63;2.63;;;24.40;45.10;;;;;;5039972;28;20035;-62
2021/05/12 00:28:13;;;;;;;4.68;2.88;;;24.40;45.10;;;;;;5028466;28;20033;-62
2021/05/12 00:30:38;;;;;;;4.50;3.00;;;24.40;45.10;;;;;;5038333;28;20135;-62
2021/05/12 00:33:04;;;;;;;4.05;2.47;;;24.30;45.10;;;;;;5040773;28;20379;-63
2021/05/12 00:35:30;;;;;;;4.68;2.65;;;24.30;45.10;;;;;;5033983;28;20052;-63
2021/05/12 00:37:55;;;;;;;4.40;2.72;;;24.30;45.00;;;;;;5030619;28;20123;-61
2021/05/12 00:40:21;;;;;;;4.18;2.60;;;24.30;45.00;;;;;;5036684;28;20028;-63
2021/05/12 00:42:48;;;;;;;4.65;2.90;;;24.30;45.10;;;;;;5040935;28;20392;-63
2021/05/12 00:45:16;;;;;;;3.72;2.28;;;24.30;45.10;;;;;;5033548;28;20017;-62
2021/05/12 00:47:42;;;;;;;4.22;2.65;;;24.30;45.10;;;;;;5037165;28;20052;-64
2021/05/12 00:50:09;;;;;;;4.22;2.60;;;24.30;45.10;;;;;;5038134;28;20047;-61
2021/05/12 00:52:35;;;;;;;4.20;2.53;;;24.30;45.10;;;;;;5044886;28;20443;-63
2021/05/12 00:55:01;;;;;;;3.85;2.50;;;24.30;45.10;;;;;;5037553;28;20029;-63
2021/05/12 00:57:27;;;;;;;3.72;2.25;;;24.30;45.00;;;;;;5036021;28;20028;-63
2021/05/12 00:59:53;;;;;;;3.85;2.70;;;24.30;45.10;;;;;;5037878;28;20025;-62
2021/05/12 01:02:19;;;;;;;4.45;2.40;;;24.30;45.10;;;;;;5045002;28;20043;-61
2021/05/12 01:04:45;;;;;;;4.80;2.42;;;24.20;45.00;;;;;;5031784;28;20121;-61
2021/05/12 01:07:11;;;;;;;4.53;2.60;;;24.20;45.00;;;;;;5042037;28;20119;-63
2021/05/12 01:09:37;;;;;;;4.25;2.53;;;24.30;45.70;;;;;;5034384;28;20091;-63
2021/05/12 01:12:04;;;;;;;3.55;2.13;;;24.20;45.00;;;;;;5046936;28;20043;-63
2021/05/12 01:14:30;;;;;;;3.63;2.13;;;24.20;45.10;;;;;;5039689;28;20033;-62
2021/05/12 01:16:56;;;;;;;3.85;2.22;;;24.20;45.10;;;;;;5045855;28;20115;-63
2021/05/12 01:19:22;;;;;;;3.20;2.10;;;24.20;45.10;;;;;;5047317;28;20447;-62
2021/05/12 01:21:48;;;;;;;3.70;2.10;;;24.20;45.00;;;;;;5039662;28;20032;-62
2021/05/12 01:24:14;;;;;;;3.45;2.10;;;24.20;45.00;;;;;;5038511;28;20049;-61
2021/05/12 01:26:40;;;;;;;3.83;2.40;;;24.20;45.10;;;;;;5044379;28;20036;-62
2021/05/12 01:29:06;;;;;;;3.55;2.25;;;24.20;45.10;;;;;;5036957;28;20033;-61
2021/05/12 01:31:33;;;;;;;3.40;2.20;;;24.10;45.10;;;;;;5038733;28;20041;-61
2021/05/12 01:34:00;;;;;;;3.00;1.95;;;24.20;45.10;;;;;;5039840;28;20125;-63
2021/05/12 01:36:27;;;;;;;3.15;2.00;;;24.10;45.00;;;;;;5041172;28;20174;-62
2021/05/12 01:38:54;;;;;;;3.40;2.00;;;24.10;45.10;;;;;;5040154;28;20017;-62
2021/05/12 01:41:23;;;;;;;3.47;2.10;;;24.20;45.10;;;;;;5036379;28;20118;-61
2021/05/12 01:43:49;;;;;;;3.20;1.90;;;24.10;45.00;;;;;;5031976;28;20037;-62
2021/05/12 01:46:14;;;;;;;4.07;2.22;;;24.10;45.10;;;;;;5040715;28;20060;-61
2021/05/12 01:48:41;;;;;;;3.58;1.92;;;24.10;45.20;;;;;;5041929;28;20057;-62
2021/05/12 01:51:08;;;;;;;3.47;2.15;;;24.10;45.10;;;;;;5044806;28;20097;-62
2021/05/12 01:53:34;;;;;;;3.53;2.08;;;24.10;45.10;;;;;;5044443;28;20048;-62
2021/05/12 01:56:00;;;;;;;4.38;2.67;;;24.10;45.10;;;;;;5043638;28;20398;-62
2021/05/12 01:58:26;;;;;;;3.13;2.00;;;24.10;45.10;;;;;;5041632;28;20037;-62
2021/05/12 02:00:54;;;;;;;2.83;1.92;;;24.10;45.10;;;;;;5038362;28;20048;-61
2021/05/12 02:03:21;;;;;;;2.80;1.80;;;24.10;45.10;;;;;;5038061;28;20476;-63
2021/05/12 02:05:48;;;;;;;2.80;1.70;;;24.00;45.00;;;;;;5040457;28;20048;-62
2021/05/12 02:08:17;;;;;;;3.28;1.98;;;24.00;45.00;;;;;;5040298;28;20025;-61
2021/05/12 02:10:44;;;;;;;2.85;1.90;;;24.00;45.00;;;;;;5042929;28;20527;-63
2021/05/12 02:13:10;;;;;;;3.03;1.90;;;24.00;45.00;;;;;;5032026;28;20201;-63
2021/05/12 02:15:35;;;;;;;3.15;1.90;;;24.00;45.00;;;;;;5038615;28;20040;-63
2021/05/12 02:18:02;;;;;;;3.10;2.08;;;24.00;45.00;;;;;;5044658;28;20029;-61
2021/05/12 02:20:30;;;;;;;2.70;1.90;;;24.00;45.00;;;;;;5044699;28;20032;-61
2021/05/12 02:22:58;;;;;;;3.05;2.00;;;24.00;45.10;;;;;;5039445;28;20072;-63
2021/05/12 02:25:24;;;;;;;3.45;1.98;;;24.00;45.60;;;;;;5043905;28;20109;-65
2021/05/12 02:27:50;;;;;;;2.88;1.80;;;24.00;45.00;;;;;;5029943;28;20084;-62
2021/05/12 02:30:16;;;;;;;3.13;1.90;;;24.00;45.00;;;;;;5032949;28;20061;-63
2021/05/12 02:32:43;;;;;;;3.05;2.00;;;24.00;45.10;;;;;;5045038;28;20032;-64
2021/05/12 02:35:09;;;;;;;2.80;1.70;;;24.00;45.00;;;;;;5040888;28;20479;-62
2021/05/12 02:37:35;;;;;;;2.60;1.77;;;24.00;45.10;;;;;;5043006;28;20042;-64
2021/05/12 02:40:03;;;;;;;3.28;1.80;;;23.90;45.00;;;;;;5043625;28;20029;-64
2021/05/12 02:42:29;;;;;;;3.08;1.70;;;23.90;45.00;;;;;;5041899;28;20124;-61
2021/05/12 02:44:54;;;;;;;2.63;1.80;;;23.90;45.00;;;;;;5042262;28;20028;-61
2021/05/12 02:47:20;;;;;;;3.15;1.90;;;23.90;45.00;;;;;;5046657;28;20089;-61
2021/05/12 02:49:46;;;;;;;3.20;1.85;;;23.90;45.00;;;;;;5040446;28;20124;-63
2021/05/12 02:52:11;;;;;;;2.17;1.45;;;23.90;45.00;;;;;;5036988;28;20032;-62
2021/05/12 02:54:37;;;;;;;3.50;1.75;;;23.90;45.00;;;;;;5043768;28;20025;-62
2021/05/12 02:57:04;;;;;;;3.25;1.80;;;23.90;45.00;;;;;;5039332;28;20024;-63
2021/05/12 02:59:30;;;;;;;2.60;1.60;;;23.90;45.00;;;;;;5042013;28;20021;-61
2021/05/12 03:01:56;;;;;;;2.40;1.52;;;23.90;45.00;;;;;;5040408;28;20037;-61
2021/05/12 03:04:22;;;;;;;3.20;1.80;;;23.90;45.00;;;;;;5038432;28;20033;-61
2021/05/12 03:06:48;;;;;;;2.55;1.60;;;23.90;45.00;;;;;;5045386;28;20364;-62
2021/05/12 03:09:14;;;;;;;2.58;1.65;;;23.90;45.00;;;;;;5037086;28;20029;-63
2021/05/12 03:11:40;;;;;;;2.95;1.52;;;23.80;45.00;;;;;;5036976;28;20045;-64
2021/05/12 03:14:07;;;;;;;2.50;1.60;;;23.80;45.00;;;;;;5032874;28;20029;-63
2021/05/12 03:16:34;;;;;;;2.97;1.80;;;23.90;45.00;;;;;;5041565;28;20052;-61
2021/05/12 03:18:59;;;;;;;2.40;1.50;;;23.90;45.10;;;;;;5044107;28;20065;-65
2021/05/12 03:21:26;;;;;;;2.42;1.50;;;23.80;45.00;;;;;;5043543;28;20779;-63
2021/05/12 03:23:51;;;;;;;2.63;1.50;;;23.90;45.00;;;;;;5041216;28;20033;-62
2021/05/12 03:26:18;;;;;;;2.30;1.50;;;23.80;45.00;;;;;;5034138;28;20048;-64
2021/05/12 03:28:44;;;;;;;2.78;1.50;;;23.80;45.00;;;;;;5038229;28;20867;-62
2021/05/12 03:31:13;;;;;;;2.47;1.50;;;23.80;45.00;;;;;;5041095;28;20221;-61
2021/05/12 03:33:40;;;;;;;2.83;1.40;;;23.80;45.00;;;;;;5044768;28;20036;-62
2021/05/12 03:36:06;;;;;;;2.30;1.50;;;23.80;45.00;;;;;;5041561;28;20029;-64
2021/05/12 03:38:33;;;;;;;2.53;1.40;;;23.80;45.00;;;;;;5041130;28;20441;-62
2021/05/12 03:40:58;;;;;;;2.08;1.40;;;23.80;45.00;;;;;;5028895;28;20112;-61
2021/05/12 03:43:24;;;;;;;1.98;1.33;;;23.80;45.00;;;;;;5044924;28;20116;-62
2021/05/12 03:45:50;;;;;;;2.60;1.55;;;23.80;45.00;;;;;;5039239;28;20037;-61
2021/05/12 03:48:16;;;;;;;2.38;1.65;;;23.70;45.00;;;;;;5042294;28;20071;-61
2021/05/12 03:50:41;;;;;;;2.20;1.40;;;23.80;45.00;;;;;;5042156;28;20029;-61
2021/05/12 03:53:08;;;;;;;2.47;1.50;;;23.80;45.00;;;;;;5031579;28;20087;-64
2021/05/12 03:55:35;;;;;;;2.45;1.30;;;23.70;45.50;;;;;;5032002;28;20029;-64
2021/05/12 03:58:01;;;;;;;2.50;1.50;;;23.70;45.00;;;;;;5031389;28;20035;-62
2021/05/12 04:00:27;;;;;;;1.92;1.30;;;23.70;45.00;;;;;;5028740;28;20061;-63
2021/05/12 04:02:52;;;;;;;2.42;1.40;;;23.70;45.00;;;;;;5042669;28;20102;-61
2021/05/12 04:05:19;;;;;;;2.22;1.50;;;23.70;45.00;;;;;;5038172;28;20175;-61
2021/05/12 04:07:44;;;;;;;2.40;1.50;;;23.70;45.50;;;;;;5041775;28;20032;-61
2021/05/12 04:10:11;;;;;;;2.50;1.35;;;23.70;45.00;;;;;;5044047;28;20721;-63
2021/05/12 04:12:37;;;;;;;2.20;1.33;;;23.70;45.00;;;;;;5030152;28;20432;-61
2021/05/12 04:15:05;;;;;;;1.70;1.15;;;23.70;45.00;;;;;;5033637;28;20018;-61
2021/05/12 04:17:31;;;;;;;2.45;1.42;;;23.70;45.00;;;;;;5044504;28;20498;-63
2021/05/12 04:19:56;;;;;;;2.17;1.27;;;23.70;45.00;;;;;;5047201;28;20029;-60
2021/05/12 04:22:22;;;;;;;2.30;1.30;;;23.70;45.00;;;;;;5046610;28;20027;-61
2021/05/12 04:24:48;;;;;;;2.38;1.38;;;23.70;45.00;;;;;;5044394;28;20063;-59
2021/05/12 04:27:14;;;;;;;1.85;1.20;;;23.60;45.00;;;;;;5045493;28;20178;-61
2021/05/12 04:29:40;;;;;;;2.35;1.30;;;23.70;45.00;;;;;;5046317;28;20199;-63
2021/05/12 04:32:06;;;;;;;2.20;1.30;;;23.70;45.00;;;;;;5046041;28;20041;-61
2021/05/12 04:34:32;;;;;;;2.35;1.38;;;23.60;45.00;;;;;;5047057;28;20037;-62
2021/05/12 04:36:58;;;;;;;1.95;1.30;;;23.60;45.00;;;;;;5045877;28;20447;-62
2021/05/12 04:39:25;;;;;;;2.00;1.30;;;23.70;45.00;;;;;;5034021;28;20112;-60
2021/05/12 04:41:50;;;;;;;2.65;1.38;;;23.60;45.00;;;;;;5031540;28;20040;-61
2021/05/12 04:44:16;;;;;;;1.98;1.02;;;23.60;45.00;;;;;;5033802;28;20044;-60
2021/05/12 04:46:44;;;;;;;2.40;1.30;;;23.60;45.00;;;;;;5044768;28;20029;-63
2021/05/12 04:49:11;;;;;;;1.83;1.10;;;23.60;45.00;;;;;;5046866;28;20102;-59
2021/05/12 04:51:36;;;;;;;1.70;1.10;;;23.60;45.00;;;;;;5041589;28;20403;-60
2021/05/12 04:54:03;;;;;;;2.17;1.20;;;23.60;45.00;;;;;;5034910;28;20041;-60
2021/05/12 04:56:29;;;;;;;1.65;1.10;;;23.60;45.00;;;;;;5034571;28;20068;-60
2021/05/12 04:58:55;;;;;;;2.05;1.15;;;23.60;45.10;;;;;;5047122;28;20533;-61
2021/05/12 05:01:20;;;;;;;2.00;1.20;;;23.60;45.10;;;;;;5037206;28;20064;-59
2021/05/12 05:03:46;;;;;;;1.75;1.20;;;23.60;45.10;;;;;;5042189;28;20128;-60
2021/05/12 05:06:12;;;;;;;2.60;1.30;;;23.60;45.10;;;;;;5046746;28;20048;-60
2021/05/12 05:08:37;;;;;;;3.20;1.42;;;23.60;45.20;;;;;;5044678;28;20107;-61
2021/05/12 05:11:04;;;;;;;1.98;1.20;;;23.60;45.20;;;;;;5045768;28;20037;-60
2021/05/12 05:13:29;;;;;;;2.05;1.30;;;23.60;45.20;;;;;;5040570;28;20108;-62
2021/05/12 05:15:55;;;;;;;2.08;1.30;;;23.60;45.20;;;;;;5038629;28;20529;-59
2021/05/12 05:18:21;;;;;;;2.55;1.40;;;23.60;45.20;;;;;;5047210;28;20284;-61
2021/05/12 05:20:47;;;;;;;2.10;1.10;;;23.60;45.20;;;;;;5047463;28;20123;-61
2021/05/12 05:23:12;;;;;;;1.52;1.00;;;23.60;45.20;;;;;;5041776;28;20486;-62
2021/05/12 05:25:38;;;;;;;2.17;1.20;;;23.60;45.20;;;;;;5038028;28;20029;-61
2021/05/12 05:28:04;;;;;;;1.88;1.10;;;23.50;45.20;;;;;;5043301;28;20506;-61
2021/05/12 05:30:30;;;;;;;1.35;1.10;;;23.60;45.20;;;;;;5036358;28;20103;-60
2021/05/12 05:32:59;;;;;;;2.47;1.17;;;23.60;45.20;;;;;;5039043;28;20028;-61
2021/05/12 05:35:25;;;;;;;2.47;1.30;;;23.50;45.20;;;;;;5044934;28;20037;-60
2021/05/12 05:37:51;;;;;;;1.90;1.10;;;23.50;45.20;;;;;;5042554;28;20029;-61
2021/05/12 05:40:16;;;;;;;1.63;1.10;;;23.60;45.30;;;;;;5048641;28;20024;-60
2021/05/12 05:42:42;;;;;;;2.50;1.20;;;23.60;45.30;;;;;;5040301;28;20169;-62
2021/05/12 05:45:08;;;;;;;1.80;1.00;;;23.60;45.20;;;;;;5048440;28;20076;-61
2021/05/12 05:47:34;;;;;;;1.85;1.10;;;23.60;45.10;;;;;;5042537;28;20036;-61
2021/05/12 05:50:01;;;;;;;2.42;1.30;;;23.70;45.10;;;;;;5049951;28;20534;-60
2021/05/12 05:52:27;;;;;;;2.63;1.08;;;23.70;45.00;;;;;;5047845;28;20039;-61
2021/05/12 05:54:53;;;;;;;2.08;1.10;;;23.70;45.00;;;;;;5044517;28;20036;-62
2021/05/12 05:57:19;;;;;;;1.90;1.25;;;23.70;45.00;;;;;;5039885;28;20127;-60
2021/05/12 05:59:44;;;;;;;2.42;1.27;;;23.80;44.90;;;;;;5048240;28;20040;-61
2021/05/12 06:02:10;;;;;;;2.03;1.20;;;23.80;44.80;;;;;;5038031;28;20041;-62
2021/05/12 06:04:36;;;;;;;2.22;1.20;;;23.80;44.70;;;;;;5048007;28;20488;-61
2021/05/12 06:07:02;;;;;;;3.33;1.38;;;23.90;44.70;;;;;;5041745;28;20032;-61
2021/05/12 06:09:27;;;;;;;2.10;1.17;;;23.90;44.70;;;;;;5044963;28;20437;-59
2021/05/12 06:11:53;;;;;;;2.03;1.13;;;23.90;44.60;;;;;;5045737;28;20033;-60
2021/05/12 06:14:20;;;;;;;2.40;1.20;;;23.90;44.50;;;;;;5046922;28;20060;-61
2021/05/12 06:16:47;;;;;;;2.28;1.20;;;24.00;44.50;;;;;;5040895;28;20021;-62
2021/05/12 06:19:12;;;;;;;3.30;1.20;;;24.00;44.50;;;;;;5047350;28;20036;-61
2021/05/12 06:21:38;;;;;;;1.95;0.98;;;24.00;44.60;;;;;;5046189;28;20041;-60
2021/05/12 06:24:04;;;;;;;2.38;1.15;;;24.00;44.60;;;;;;5041115;28;20029;-61
2021/05/12 06:26:30;;;;;;;1.92;1.05;;;24.00;44.50;;;;;;5041411;28;20486;-59
2021/05/12 06:28:55;;;;;;;1.73;1.00;;;24.10;44.50;;;;;;5046046;28;20086;-61
2021/05/12 06:31:21;;;;;;;2.72;1.20;;;24.10;44.30;;;;;;5039226;28;20065;-59
2021/05/12 06:33:47;;;;;;;2.45;1.02;;;24.10;44.40;;;;;;5032168;28;20029;-60
2021/05/12 06:36:16;;;;;;;1.73;0.90;;;24.10;44.50;;;;;;5047735;28;20116;-60
2021/05/12 06:38:42;;;;;;;2.38;1.30;;;24.10;44.40;;;;;;5035129;28;20018;-59
2021/05/12 06:41:07;;;;;;;1.70;0.90;;;24.10;44.30;;;;;;5038241;28;20017;-60
2021/05/12 06:43:33;;;;;;;2.10;1.00;;;24.20;44.20;;;;;;5038385;28;20060;-59
2021/05/12 06:45:59;;;;;;;2.42;1.13;;;24.20;44.20;;;;;;5046346;28;20044;-60
2021/05/12 06:48:24;;;;;;;2.78;1.20;;;24.20;44.20;;;;;;5047185;28;20067;-63
2021/05/12 06:50:50;;;;;;;2.38;1.00;;;24.20;44.10;;;;;;5043795;28;20745;-61
2021/05/12 06:53:25;;;;;;;2.10;1.10;;;24.30;44.10;;;;;;5035689;28;20029;-61
2021/05/12 06:55:51;;;;;;;3.22;1.23;;;24.30;44.00;;;;;;5044189;28;20154;-62
2021/05/12 06:58:17;;;;;;;2.30;0.98;;;24.30;44.00;;;;;;5037327;28;20045;-62
2021/05/12 07:00:43;;;;;;;2.85;1.10;;;24.30;43.90;;;;;;5036005;28;20503;-62
2021/05/12 07:03:08;;;;;;;1.63;0.90;;;24.30;43.90;;;;;;5028228;28;20040;-60
2021/05/12 07:05:34;;;;;;;1.58;0.80;;;24.30;43.90;;;;;;5032501;28;20033;-59
2021/05/12 07:08:00;;;;;;;2.13;1.08;;;24.30;43.80;;;;;;5045117;28;20033;-59
2021/05/12 07:10:26;;;;;;;1.98;1.23;;;24.30;43.80;;;;;;5038270;28;20032;-62
2021/05/12 07:12:51;;;;;;;1.95;1.10;;;24.30;43.70;;;;;;5045238;28;20028;-62
2021/05/12 07:15:17;;;;;;;2.40;1.10;;;24.40;44.30;;;;;;5037546;28;20412;-59
2021/05/12 07:17:43;;;;;;;1.63;0.95;;;24.40;43.70;;;;;;5035016;28;20463;-60
2021/05/12 07:20:10;;;;;;;2.25;1.00;;;24.40;43.70;;;;;;5046940;28;20456;-62
2021/05/12 07:22:35;;;;;;;2.40;0.90;;;24.40;43.70;;;;;;5044455;28;20423;-61
2021/05/12 07:25:01;;;;;;;2.30;1.10;;;24.50;43.60;;;;;;5044367;28;20033;-62
2021/05/12 07:27:28;;;;;;;1.77;1.00;;;24.50;43.60;;;;;;5044183;28;20025;-60
2021/05/12 07:29:53;;;;;;;3.15;1.10;;;24.50;43.50;;;;;;5042301;28;20029;-61
2021/05/12 07:32:19;;;;;;;1.27;0.82;;;24.50;43.60;;;;;;5038799;28;20726;-60
2021/05/12 07:34:50;;;;;;;2.88;1.10;;;24.50;43.60;;;;;;5039009;28;20037;-61
2021/05/12 07:37:16;;;;;;;2.40;1.00;;;24.50;43.50;;;;;;5046444;28;20111;-58
2021/05/12 07:39:41;;;;;;;1.70;0.90;;;24.50;43.50;;;;;;5044506;28;20108;-59
2021/05/12 07:42:08;;;;;;;2.53;1.20;;;24.50;43.50;;;;;;5045048;28;20508;-59
2021/05/12 07:44:34;;;;;;;1.65;1.00;;;24.60;44.10;;;;;;5049362;28;20428;-62
2021/05/12 07:46:59;;;;;;;2.00;0.93;;;24.50;43.40;;;;;;5057818;28;20067;-61
2021/05/12 07:49:25;;;;;;;1.70;0.95;;;24.60;43.50;;;;;;5033174;28;20157;-61
2021/05/12 07:51:51;;;;;;;1.55;1.00;;;24.60;43.40;;;;;;5042245;28;20377;-59
2021/05/12 07:54:17;;;;;;;2.08;1.20;;;24.60;43.40;;;;;;5043570;28;20074;-61
2021/05/12 07:56:42;;;;;;;1.45;0.90;;;24.60;43.30;;;;;;5044369;28;20479;-60
2021/05/12 07:59:08;;;;;;;2.03;0.93;;;24.60;43.30;;;;;;5036580;28;20029;-60
2021/05/12 08:01:41;;;;;;;1.75;0.90;;;24.60;43.30;;;;;;5032710;28;20053;-62
2021/05/12 08:04:06;;;;;;;1.90;0.80;;;24.60;43.30;;;;;;5042004;28;20025;-60
2021/05/12 08:06:32;;;;;;;1.45;0.85;;;24.60;43.70;;;;;;5046365;28;20379;-61
2021/05/12 08:08:58;;;;;;;1.85;0.90;;;24.70;43.20;;;;;;5044967;28;20082;-61
2021/05/12 08:11:23;;;;;;;2.03;1.10;;;24.70;43.10;;;;;;5046137;28;20060;-61
2021/05/12 08:13:49;;;;;;;1.25;0.80;;;24.70;43.20;;;;;;5045301;28;20029;-63
2021/05/12 08:16:15;;;;;;;2.15;0.82;;;24.70;43.20;;;;;;5043880;28;20159;-61
2021/05/12 08:18:41;;;;;;;2.35;1.00;;;24.70;43.20;;;;;;5046688;28;20025;-63
2021/05/12 08:21:07;;;;;;;1.88;0.80;;;24.70;43.10;;;;;;5045532;28;20032;-62
2021/05/12 08:23:33;;;;;;;2.65;0.88;;;24.70;43.10;;;;;;5043137;28;20029;-58
2021/05/12 08:25:59;;;;;;;1.35;0.90;;;24.70;43.10;;;;;;5037639;28;20037;-60
2021/05/12 08:28:25;;;;;;;2.50;0.90;;;24.70;43.00;;;;;;5048318;28;20029;-59
2021/05/12 08:30:51;;;;;;;1.33;0.80;;;24.80;43.00;;;;;;5046544;28;20443;-60
2021/05/12 08:33:17;;;;;;;1.42;0.90;;;24.70;43.10;;;;;;5041123;28;20017;-59
2021/05/12 08:35:44;;;;;;;2.10;0.85;;;24.70;43.00;;;;;;5043282;28;20041;-62
2021/05/12 08:38:17;;;;;;;1.63;0.90;;;24.70;43.00;;;;;;5038794;28;20364;-60
2021/05/12 08:40:44;;;;;;;1.85;0.90;;;24.80;43.00;;;;;;5035729;28;20049;-59
2021/05/12 08:43:12;;;;;;;1.83;0.90;;;24.70;42.90;;;;;;5034489;28;20021;-60
2021/05/12 08:45:38;;;;;;;2.10;0.90;;;24.80;43.10;;;;;;5041810;28;20490;-59
2021/05/12 08:48:10;;;;;;;1.63;0.90;;;24.80;43.00;;;;;;5044617;28;20137;-61
2021/05/12 08:50:36;;;;;;;1.65;0.80;;;24.80;43.00;;;;;;5038634;28;20028;-61
2021/05/12 08:53:03;;;;;;;1.50;0.80;;;24.80;43.00;;;;;;5034322;28;20021;-63
2021/05/12 08:55:30;;;;;;;1.73;0.85;;;24.80;43.00;;;;;;5046512;28;20121;-58
2021/05/12 08:57:56;;;;;;;1.45;0.75;;;24.80;43.00;;;;;;5039057;28;20029;-59
2021/05/12 09:00:22;;;;;;;1.70;0.80;;;24.80;42.90;;;;;;5033353;28;20049;-60
2021/05/12 09:02:48;;;;;;;2.13;1.08;;;24.80;43.00;;;;;;5046207;28;20036;-61
2021/05/12 09:05:14;;;;;;;2.00;1.00;;;24.80;43.00;;;;;;5055880;28;20182;-62
2021/05/12 09:07:39;;;;;;;1.90;0.90;;;24.80;42.90;;;;;;5047920;28;20471;-63
2021/05/12 09:10:06;;;;;;;2.38;0.95;;;24.80;42.90;;;;;;5057360;28;20158;-61
2021/05/12 09:12:46;;;;;;;1.73;0.80;;;24.80;42.80;;;;;;5054720;28;20036;-61
2021/05/12 09:15:16;;;;;;;1.75;0.90;;;24.90;42.80;;;;;;5049483;28;20093;-63
2021/05/12 09:17:43;;;;;;;1.50;0.80;;;24.90;42.80;;;;;;5045555;28;20055;-61
2021/05/12 09:20:29;;;;;;;1.10;0.68;;;24.90;42.80;;;;;;5048028;28;20106;-62
2021/05/12 09:23:01;;;;;;;1.42;0.70;;;24.80;42.70;;;;;;5052460;28;20106;-62
2021/05/12 09:25:32;;;;;;;1.35;0.75;;;24.90;42.80;;;;;;5049098;28;20713;-62
2021/05/12 09:28:14;;;;;;;1.30;0.90;;;24.90;42.70;;;;;;5047391;28;20040;-60
2021/05/12 09:30:48;;;;;;;1.33;0.85;;;24.90;42.60;;;;;;5046978;28;20037;-61
2021/05/12 09:33:27;;;;;;;1.30;0.90;;;24.90;42.60;;;;;;5047454;28;20371;-60
2021/05/12 09:35:53;;;;;;;1.83;0.80;;;24.90;42.60;;;;;;5048659;28;20462;-60
2021/05/12 09:38:27;;;;;;;1.58;0.90;;;24.90;42.50;;;;;;5046026;28;20040;-60
2021/05/12 09:41:04;;;;;;;2.03;0.95;;;24.90;42.50;;;;;;5040985;28;20044;-61
2021/05/12 09:43:31;;;;;;;1.17;0.90;;;24.90;43.00;;;;;;5035849;28;20110;-61
2021/05/12 09:46:20;;;;;;;1.17;0.90;;;24.90;42.40;;;;;;5047736;28;20028;-60
2021/05/12 09:49:09;;;;;;;0.90;0.70;;;24.90;42.40;;;;;;5043089;28;20068;-60
2021/05/12 09:51:38;;;;;;;1.27;0.77;;;24.90;42.40;;;;;;5041345;28;20041;-63
2021/05/12 09:54:20;;;;;;;1.50;0.90;;;24.90;42.40;;;;;;5048402;28;20024;-60
2021/05/12 09:56:50;;;;;;;1.67;0.90;;;24.90;42.40;;;;;;5044189;28;20366;-62
2021/05/12 09:59:24;;;;;;;1.08;0.80;;;24.90;42.50;;;;;;5035430;28;20029;-59
2021/05/12 10:02:02;;;;;;;1.58;0.90;;;25.00;42.50;;;;;;5041913;28;20124;-61
2021/05/12 10:04:48;;;;;;;1.27;0.90;;;25.00;42.60;;;;;;5039756;28;20029;-63
2021/05/12 10:07:22;;;;;;;1.05;0.73;;;24.90;42.60;;;;;;5039384;28;20100;-60
2021/05/12 10:09:50;;;;;;;1.55;0.90;;;25.00;42.70;;;;;;5042283;28;20029;-60
2021/05/12 10:12:22;;;;;;;2.63;0.90;;;25.00;42.70;;;;;;5032220;28;20108;-60
2021/05/12 10:14:56;;;;;;;1.75;0.90;;;25.00;42.70;;;;;;5043840;28;20068;-60
2021/05/12 10:17:24;;;;;;;1.48;0.90;;;25.00;42.70;;;;;;5033390;28;20025;-59
2021/05/12 10:19:50;;;;;;;2.10;0.90;;;25.00;42.80;;;;;;5043108;28;20028;-60
2021/05/12 10:22:17;;;;;;;2.13;0.88;;;25.00;42.80;;;;;;5041102;28;20113;-60
2021/05/12 10:24:45;;;;;;;1.63;0.90;;;24.90;42.70;;;;;;5038904;28;20131;-59
2021/05/12 10:27:16;;;;;;;1.45;0.85;;;25.00;42.70;;;;;;5044621;28;20504;-59
2021/05/12 10:29:49;;;;;;;1.25;0.90;;;25.00;42.80;;;;;;5040096;28;20116;-58
2021/05/12 10:32:17;;;;;;;2.13;1.00;;;24.90;42.70;;;;;;5039517;28;20519;-61
2021/05/12 10:34:43;;;;;;;1.27;0.93;;;24.90;42.80;;;;;;5047375;28;20033;-59
2021/05/12 10:37:16;;;;;;;2.35;1.00;;;24.90;42.80;;;;;;5043757;28;20035;-59
2021/05/12 10:39:49;;;;;;;1.98;0.93;;;24.90;42.80;;;;;;5037958;28;20035;-60
2021/05/12 10:43:02;;;;;;;2.33;1.00;;;24.90;42.80;;;;;;5037647;28;20087;-60
2021/05/12 10:45:58;;;;;;;2.22;1.20;;;24.90;42.80;;;;;;5035850;28;20029;-63
2021/05/12 10:48:47;;;;;;;3.03;1.45;;;24.90;42.90;;;;;;5045631;28;20355;-60
2021/05/12 10:51:23;;;;;;;4.90;2.17;;;24.90;42.90;;;;;;5044172;28;20065;-59
2021/05/12 10:53:50;;;;;;;3.40;2.17;;;24.90;42.90;;;;;;5042555;28;20119;-58
2021/05/12 10:56:21;;;;;;;3.75;2.50;;;24.80;42.90;;;;;;5039259;28;20665;-58
2021/05/12 10:58:59;;;;;;;7.30;3.42;;;24.90;43.00;;;;;;5042996;28;20526;-59
2021/05/12 11:01:27;;;;;;;5.65;3.15;;;24.90;43.00;;;;;;5035396;28;20034;-60
2021/05/12 11:03:53;;;;;;;6.00;3.03;;;24.90;43.00;;;;;;5037879;28;20025;-62
2021/05/12 11:06:19;;;;;;;3.85;2.75;;;24.90;43.00;;;;;;5038064;28;20852;-61
2021/05/12 11:09:07;;;;;;;5.45;3.47;;;24.90;43.00;;;;;;5035587;28;20296;-61
2021/05/12 11:11:52;;;;;;;4.93;3.00;;;24.90;43.00;;;;;;5046592;28;20036;-61
2021/05/12 11:14:29;;;;;;;4.50;3.05;;;24.90;43.00;;;;;;5045127;28;20025;-62
2021/05/12 11:17:09;;;;;;;5.00;3.05;;;24.90;43.00;;;;;;5042575;28;20044;-58
2021/05/12 11:19:56;;;;;;;4.68;3.25;;;24.90;43.00;;;;;;5039655;28;20478;-61
2021/05/12 11:22:38;;;;;;;4.90;3.40;;;24.90;43.00;;;;;;5043735;28;20019;-63
2021/05/12 11:33:39;;;;;;;5.05;3.40;;;25.00;43.10;;;;;;5047157;28;20047;-59
2021/05/12 11:36:13;;;;;;;4.90;3.20;;;25.00;43.10;;;;;;5046755;28;20021;-59
2021/05/12 11:38:40;;;;;;;5.22;3.30;;;25.00;43.10;;;;;;5033253;28;20027;-60
2021/05/12 11:41:16;;;;;;;6.40;3.85;;;25.10;43.20;;;;;;5041104;28;20017;-60
2021/05/12 11:43:57;;;;;;;5.38;3.05;;;25.10;43.20;;;;;;5035188;28;20021;-60
2021/05/12 11:46:27;;;;;;;6.57;3.40;;;25.00;43.10;;;;;;5038262;28;20069;-63
2021/05/12 11:48:56;;;;;;;4.95;3.20;;;25.10;43.20;;;;;;5043808;28;20186;-59
2021/05/12 11:51:37;;;;;;;4.53;3.03;;;25.10;43.20;;;;;;5033261;28;20068;-59
2021/05/12 11:54:21;;;;;;;5.65;3.05;;;25.10;43.20;;;;;;5030490;28;20044;-60
2021/05/12 11:56:51;;;;;;;6.35;3.80;;;25.10;43.20;;;;;;5033446;28;20100;-59
2021/05/12 11:59:23;;;;;;;5.15;3.20;;;25.10;43.20;;;;;;5044293;28;20044;-60
2021/05/12 12:02:02;;;;;;;4.95;3.22;;;25.10;43.20;;;;;;5041475;28;20113;-62
2021/05/12 12:06:54;;;;;;;5.22;3.30;;;25.20;43.20;;;;;;5042186;28;20124;-61
2021/05/12 12:09:21;;;;;;;4.97;3.13;;;25.20;43.20;;;;;;5041237;28;20829;-61
2021/05/12 12:11:47;;;;;;;6.65;3.65;;;25.20;43.30;;;;;;5040902;28;20044;-60
2021/05/12 12:14:13;;;;;;;4.43;2.75;;;25.20;43.40;;;;;;5039018;28;20078;-60
2021/05/12 12:16:40;;;;;;;5.43;3.40;;;25.20;44.00;;;;;;5025064;28;20029;-58
2021/05/12 12:19:15;;;;;;;6.15;3.30;;;25.20;43.40;;;;;;5040304;28;20035;-60
2021/05/12 12:21:43;;;;;;;6.03;3.78;;;25.20;43.50;;;;;;5043326;28;20037;-61
2021/05/12 12:24:16;;;;;;;7.00;4.15;;;25.20;43.40;;;;;;5043229;28;20028;-59
2021/05/12 12:26:46;;;;;;;5.25;3.72;;;25.20;43.30;;;;;;5041886;28;20033;-59
2021/05/12 12:29:13;;;;;;;5.30;3.45;;;25.30;43.30;;;;;;5043170;28;20087;-62
2021/05/12 12:31:45;;;;;;;6.65;3.85;;;25.30;43.30;;;;;;5036550;28;20045;-59
2021/05/12 12:34:27;;;;;;;8.18;4.03;;;25.30;43.30;;;;;;5041311;28;20462;-59
2021/05/12 12:37:10;;;;;;;5.82;3.80;;;25.30;43.20;;;;;;5044418;28;20076;-61
2021/05/12 12:39:52;;;;;;;5.47;3.67;;;25.30;43.10;;;;;;5046241;28;20037;-58
2021/05/12 12:42:31;;;;;;;5.43;3.80;;;25.20;43.00;;;;;;5046640;28;20482;-58
2021/05/12 12:45:01;;;;;;;5.95;3.80;;;25.30;43.10;;;;;;5045619;28;20730;-57
2021/05/12 12:47:27;;;;;;;7.82;3.67;;;25.30;43.00;;;;;;5041894;28;20091;-58
2021/05/12 12:50:09;;;;;;;5.25;3.58;;;25.20;43.00;;;;;;5043344;28;20072;-58
2021/05/12 12:52:41;;;;;;;5.50;3.92;;;25.30;43.00;;;;;;5038033;28;20033;-60
2021/05/12 12:55:16;;;;;;;5.57;3.88;;;25.30;43.00;;;;;;5048164;28;20033;-61
2021/05/12 12:57:58;;;;;;;5.43;3.38;;;25.30;43.00;;;;;;5046674;28;20035;-59
2021/05/12 13:00:37;;;;;;;6.55;3.85;;;25.30;43.00;;;;;;5045201;28;20032;-60
2021/05/12 13:03:07;;;;;;;5.63;3.33;;;25.30;43.00;;;;;;5038764;28;20018;-60
2021/05/12 13:05:41;;;;;;;6.50;3.30;;;25.30;43.10;;;;;;5046200;28;20112;-60